createdAt,value
2022-08-03T00:01:42.865Z,94751.03
2022-08-03T00:04:11.563Z,94749.44
2022-08-03T00:06:38.740Z,94742.66
2022-08-03T00:09:06.310Z,94751.09
2022-08-03T00:11:33.486Z,94750.66
2022-08-03T00:14:01.089Z,94755.78
2022-08-03T00:16:27.909Z,94743.31
2022-08-03T00:18:54.742Z,94750.31
2022-08-03T00:21:22.536Z,94742.09
2022-08-03T00:23:52.200Z,94745.78
2022-08-03T00:26:20.943Z,94747.44
2022-08-03T00:28:48.414Z,94742.50
2022-08-03T00:31:15.352Z,94740.06
2022-08-03T00:33:59.101Z,94736.97
2022-08-03T00:36:29.293Z,94739.03
2022-08-03T00:38:56.676Z,94733.88
2022-08-03T00:41:23.853Z,94746.63
2022-08-03T00:43:51.167Z,94738.84
2022-08-03T00:46:21.793Z,94736.38
2022-08-03T00:48:52.404Z,94747.84
2022-08-03T00:51:20.832Z,94740.47
2022-08-03T00:53:48.074Z,94736.78
2022-08-03T00:56:16.298Z,94742.34
2022-08-03T00:58:46.288Z,94739.44
2022-08-03T01:01:15.337Z,94746.63
2022-08-03T01:03:42.538Z,94736.16
2022-08-03T01:06:36.600Z,94737.41
2022-08-03T01:09:20.919Z,94742.09
2022-08-03T01:12:04.601Z,94740.44
2022-08-03T01:14:39.274Z,94731.06
2022-08-03T01:17:57.937Z,94732.50
2022-08-03T01:20:28.161Z,94732.88
2022-08-03T01:23:21.725Z,94732.91
2022-08-03T01:26:06.436Z,94733.09
2022-08-03T01:29:05.436Z,94733.09
2022-08-03T01:32:58.464Z,94727.81
2022-08-03T01:34:36.532Z,94720.84
2022-08-03T01:37:06.379Z,94724.34
2022-08-03T01:39:33.566Z,94719.81
2022-08-03T01:42:06.326Z,94722.88
2022-08-03T01:44:38.710Z,94720.34
2022-08-03T01:47:07.046Z,94720.34
2022-08-03T01:49:40.169Z,94715.88
2022-08-03T01:52:07.913Z,94722.84
2022-08-03T01:54:40.838Z,94712.81
2022-08-03T01:57:08.959Z,94716.50
2022-08-03T01:59:37.062Z,94717.31
2022-08-03T02:02:29.773Z,94716.69
2022-08-03T02:04:56.969Z,94715.81
2022-08-03T02:07:26.169Z,94708.69
2022-08-03T02:09:56.012Z,94717.06
2022-08-03T02:12:27.089Z,94710.97
2022-08-03T02:14:56.619Z,94704.66
2022-08-03T02:17:39.632Z,94701.81
2022-08-03T02:20:09.418Z,94720.38
2022-08-03T02:22:40.181Z,94702.81
2022-08-03T02:25:10.017Z,94713.00
2022-08-03T02:28:02.127Z,94703.63
2022-08-03T02:30:38.821Z,94716.50
2022-08-03T02:33:11.717Z,94712.63
2022-08-03T02:35:40.785Z,94709.50
2022-08-03T02:38:10.536Z,94709.72
2022-08-03T02:40:40.886Z,94710.97
2022-08-03T02:43:11.901Z,94701.38
2022-08-03T02:45:46.060Z,94706.06
2022-08-03T02:48:17.698Z,94709.34
2022-08-03T02:50:45.537Z,94706.06
2022-08-03T02:53:14.234Z,94706.44
2022-08-03T02:55:43.281Z,94705.53
2022-08-03T02:58:14.138Z,94703.69
2022-08-03T03:00:44.616Z,94698.00
2022-08-03T03:03:11.741Z,94696.06
2022-08-03T03:05:56.041Z,94705.41
2022-08-03T03:08:28.386Z,94700.19
2022-08-03T03:11:01.068Z,94700.19
2022-08-03T03:13:30.527Z,94698.53
2022-08-03T03:16:01.745Z,94694.25
2022-08-03T03:18:29.703Z,94702.84
2022-08-03T03:20:57.953Z,94693.78
2022-08-03T03:23:25.807Z,94690.75
2022-08-03T03:25:53.441Z,94701.34
2022-08-03T03:28:20.925Z,94686.69
2022-08-03T03:30:52.815Z,94689.53
2022-08-03T03:33:20.508Z,94695.00
2022-08-03T03:35:47.628Z,94687.03
2022-08-03T03:38:14.660Z,94700.38
2022-08-03T03:40:41.877Z,94691.66
2022-08-03T03:43:11.144Z,94701.88
2022-08-03T03:45:41.141Z,94710.81
2022-08-03T03:48:08.000Z,94696.22
2022-08-03T03:50:37.363Z,94700.22
2022-08-03T03:53:04.899Z,94705.59
2022-08-03T03:55:31.757Z,94709.81
2022-08-03T03:57:58.750Z,94696.53
2022-08-03T04:00:25.633Z,94699.81
2022-08-03T04:02:52.481Z,94697.78
2022-08-03T04:05:37.677Z,94699.19
2022-08-03T04:08:32.645Z,94699.06
2022-08-03T04:11:29.304Z,94709.91
2022-08-03T04:14:09.661Z,94701.78
2022-08-03T04:16:43.784Z,94708.50
2022-08-03T04:19:22.614Z,94694.34
2022-08-03T04:21:53.505Z,94705.75
2022-08-03T04:24:27.934Z,94695.28
2022-08-03T04:26:57.672Z,94712.72
2022-08-03T04:29:27.003Z,94705.63
2022-08-03T04:31:55.568Z,94700.25
2022-08-03T04:34:22.582Z,94709.25
2022-08-03T04:36:54.975Z,94714.59
2022-08-03T04:39:27.658Z,94712.91
2022-08-03T04:42:07.613Z,94716.91
2022-08-03T04:44:42.306Z,94710.13
2022-08-03T04:47:09.259Z,94722.84
2022-08-03T04:49:39.293Z,94726.94
2022-08-03T04:52:10.117Z,94728.22
2022-08-03T04:54:45.902Z,94718.03
2022-08-03T04:57:22.182Z,94721.19
2022-08-03T05:00:01.354Z,94726.78
2022-08-03T05:02:30.634Z,94734.38
2022-08-03T05:04:58.362Z,94737.91
2022-08-03T05:07:25.499Z,94728.75
2022-08-03T05:09:57.713Z,94731.41
2022-08-03T05:12:32.707Z,94726.72
2022-08-03T05:15:00.996Z,94722.13
2022-08-03T05:17:28.806Z,94734.75
2022-08-03T05:19:56.585Z,94737.66
2022-08-03T05:22:23.961Z,94726.22
2022-08-03T05:24:50.814Z,94729.72
2022-08-03T05:27:19.609Z,94744.63
2022-08-03T05:29:48.239Z,94723.81
2022-08-03T05:32:16.749Z,94730.78
2022-08-03T05:34:44.374Z,94729.75
2022-08-03T05:37:11.512Z,94731.84
2022-08-03T05:39:38.420Z,94736.53
2022-08-03T05:42:05.242Z,94740.91
2022-08-03T05:44:32.290Z,94732.13
2022-08-03T05:46:59.518Z,94729.28
2022-08-03T05:49:26.442Z,94736.66
2022-08-03T05:52:00.027Z,94735.25
2022-08-03T05:54:57.393Z,94725.25
2022-08-03T05:57:25.933Z,94740.00
2022-08-03T05:59:57.401Z,94739.81
2022-08-03T06:02:28.461Z,94740.63
2022-08-03T06:04:55.245Z,94735.13
2022-08-03T06:07:22.383Z,94730.63
2022-08-03T06:10:33.733Z,94732.28
2022-08-03T06:12:36.238Z,94729.00
2022-08-03T06:15:04.946Z,94737.19
2022-08-03T06:17:37.672Z,94729.84
2022-08-03T06:20:06.296Z,94727.81
2022-08-03T06:22:33.118Z,94714.28
2022-08-03T06:25:04.067Z,94719.81
2022-08-03T06:27:36.432Z,94729.16
2022-08-03T06:30:05.505Z,94730.19
2022-08-03T06:32:32.456Z,94732.38
2022-08-03T06:35:00.149Z,94730.28
2022-08-03T06:37:27.346Z,94730.44
2022-08-03T06:39:54.350Z,94727.56
2022-08-03T06:42:21.494Z,94728.72
2022-08-03T06:44:49.909Z,94731.94
2022-08-03T06:47:16.789Z,94723.09
2022-08-03T06:49:43.681Z,94725.22
2022-08-03T06:52:37.879Z,94724.75
2022-08-03T06:55:06.533Z,94721.75
2022-08-03T06:57:33.375Z,94732.66
2022-08-03T07:00:07.694Z,94723.16
2022-08-03T07:02:39.850Z,94722.97
2022-08-03T07:05:08.052Z,94727.50
2022-08-03T07:07:34.899Z,94732.63
2022-08-03T07:10:02.383Z,94726.72
2022-08-03T07:12:30.842Z,94728.31
2022-08-03T07:15:01.625Z,94736.28
2022-08-03T07:17:35.541Z,94727.88
2022-08-03T07:20:04.869Z,94728.63
2022-08-03T07:22:31.705Z,94731.38
2022-08-03T07:24:58.908Z,94732.34
2022-08-03T07:27:30.469Z,94727.81
2022-08-03T07:29:58.892Z,94734.34
2022-08-03T07:32:26.314Z,94719.81
2022-08-03T07:34:57.082Z,94723.72
2022-08-03T07:37:27.229Z,94721.81
2022-08-03T07:39:54.009Z,94722.69
2022-08-03T07:42:20.845Z,94729.50
2022-08-03T07:44:47.595Z,94720.69
2022-08-03T07:47:24.016Z,94716.34
2022-08-03T07:49:51.025Z,94716.66
2022-08-03T07:52:37.128Z,94713.78
2022-08-03T07:55:08.301Z,94723.81
2022-08-03T07:57:35.802Z,94715.22
2022-08-03T08:00:06.118Z,94725.94
2022-08-03T08:02:32.900Z,94723.50
2022-08-03T08:05:05.002Z,94714.53
2022-08-03T08:07:32.498Z,94726.13
2022-08-03T08:09:59.265Z,94712.09
2022-08-03T08:12:26.063Z,94713.69
2022-08-03T08:14:52.915Z,94716.88
2022-08-03T08:17:20.125Z,94722.38
2022-08-03T08:19:49.018Z,94713.59
2022-08-03T08:22:19.746Z,94719.38
2022-08-03T08:24:57.118Z,94715.16
2022-08-03T08:27:23.891Z,94712.00
2022-08-03T08:29:55.125Z,94712.31
2022-08-03T08:32:24.479Z,94722.34
2022-08-03T08:34:51.225Z,94714.50
2022-08-03T08:37:18.151Z,94727.25
2022-08-03T08:39:44.886Z,94723.03
2022-08-03T08:42:11.833Z,94723.63
2022-08-03T08:44:38.666Z,94717.72
2022-08-03T08:47:06.023Z,94724.19
2022-08-03T08:49:36.175Z,94716.09
2022-08-03T08:52:05.145Z,94712.88
2022-08-03T08:55:00.193Z,94718.09
2022-08-03T08:57:51.197Z,94719.50
2022-08-03T09:00:18.840Z,94710.34
2022-08-03T09:02:46.751Z,94723.81
2022-08-03T09:05:19.198Z,94718.41
2022-08-03T09:07:47.737Z,94722.19
2022-08-03T09:10:22.064Z,94723.28
2022-08-03T09:12:52.226Z,94724.41
2022-08-03T09:15:22.134Z,94718.69
2022-08-03T09:17:51.419Z,94722.75
2022-08-03T09:20:20.164Z,94723.81
2022-08-03T09:23:51.592Z,94714.31
2022-08-03T09:26:00.119Z,94717.25
2022-08-03T09:29:01.287Z,94713.44
2022-08-03T09:31:36.110Z,94713.81
2022-08-03T09:34:09.184Z,94726.34
2022-08-03T09:36:47.012Z,94725.94
2022-08-03T09:39:40.398Z,94723.78
2022-08-03T09:42:18.545Z,94725.22
2022-08-03T09:44:50.869Z,94719.09
2022-08-03T09:47:44.712Z,94719.09
2022-08-03T09:50:13.064Z,94720.31
2022-08-03T09:52:50.127Z,94721.84
2022-08-03T09:56:34.645Z,94712.56
2022-08-03T09:58:10.791Z,94721.72
2022-08-03T10:00:57.723Z,94721.38
2022-08-03T10:03:27.945Z,94712.56
2022-08-03T10:05:59.577Z,94709.03
2022-08-03T10:08:26.983Z,94707.06
2022-08-03T10:10:54.792Z,94714.59
2022-08-03T10:13:23.474Z,94706.94
2022-08-03T10:16:22.769Z,94708.91
2022-08-03T10:18:38.118Z,94708.88
2022-08-03T10:21:08.777Z,94708.53
2022-08-03T10:23:38.529Z,94697.50
2022-08-03T10:26:08.299Z,94701.03
2022-08-03T10:28:41.565Z,94700.00
2022-08-03T10:31:14.039Z,94705.78
2022-08-03T10:33:51.126Z,94692.97
2022-08-03T10:36:24.998Z,94693.91
2022-08-03T10:38:53.808Z,94695.28
2022-08-03T10:41:22.697Z,94693.97
2022-08-03T10:44:20.080Z,94679.16
2022-08-03T10:46:50.458Z,94688.47
2022-08-03T10:49:33.537Z,94697.50
2022-08-03T10:52:01.305Z,94696.03
2022-08-03T10:55:03.582Z,94688.53
2022-08-03T10:58:01.006Z,94689.84
2022-08-03T11:00:30.532Z,94687.38
2022-08-03T11:03:10.263Z,94685.44
2022-08-03T11:05:49.503Z,94684.38
2022-08-03T11:08:26.358Z,94679.28
2022-08-03T11:11:01.692Z,94686.63
2022-08-03T11:13:32.044Z,94679.19
2022-08-03T11:16:06.019Z,94677.06
2022-08-03T11:18:33.537Z,94674.47
2022-08-03T11:21:00.865Z,94668.00
2022-08-03T11:24:03.994Z,94663.25
2022-08-03T11:26:33.016Z,94665.56
2022-08-03T11:29:29.587Z,94659.69
2022-08-03T11:31:56.932Z,94665.34
2022-08-03T11:34:24.764Z,94657.53
2022-08-03T11:37:28.522Z,94669.25
2022-08-03T11:39:57.356Z,94655.53
2022-08-03T11:42:24.104Z,94663.00
2022-08-03T11:44:52.273Z,94653.66
2022-08-03T11:47:21.516Z,94660.38
2022-08-03T11:49:51.198Z,94667.84
2022-08-03T11:52:19.575Z,94665.41
2022-08-03T11:54:57.197Z,94654.16
2022-08-03T11:59:01.553Z,94655.84
2022-08-03T12:00:29.611Z,94656.53
2022-08-03T12:03:04.742Z,94656.53
2022-08-03T12:05:52.329Z,94651.53
2022-08-03T12:08:31.093Z,94648.66
2022-08-03T12:11:01.438Z,94645.16
2022-08-03T12:14:44.261Z,94646.38
2022-08-03T12:16:25.930Z,94649.44
2022-08-03T12:19:06.665Z,94641.13
2022-08-03T12:21:34.638Z,94637.31
2022-08-03T12:24:04.344Z,94649.00
2022-08-03T12:26:58.556Z,94646.03
2022-08-03T12:29:26.437Z,94643.75
2022-08-03T12:31:53.420Z,94641.16
2022-08-03T12:34:20.210Z,94639.88
2022-08-03T12:36:59.190Z,94623.53
2022-08-03T12:39:30.795Z,94639.34
2022-08-03T12:41:58.053Z,94640.34
2022-08-03T12:44:43.190Z,94630.88
2022-08-03T12:47:11.926Z,94632.34
2022-08-03T12:49:54.346Z,94619.75
2022-08-03T12:52:23.627Z,94618.78
2022-08-03T12:54:58.676Z,94621.47
2022-08-03T12:57:25.646Z,94615.56
2022-08-03T12:59:56.024Z,94612.91
2022-08-03T13:02:26.287Z,94620.63
2022-08-03T13:04:55.255Z,94621.59
2022-08-03T13:07:23.254Z,94629.28
2022-08-03T13:09:56.799Z,94623.38
2022-08-03T13:12:30.051Z,94634.78
2022-08-03T13:14:59.991Z,94633.19
2022-08-03T13:17:28.053Z,94614.84
2022-08-03T13:19:55.002Z,94609.53
2022-08-03T13:22:26.242Z,94620.91
2022-08-03T13:24:58.489Z,94618.44
2022-08-03T13:28:04.013Z,94620.13
2022-08-03T13:30:14.533Z,94621.28
2022-08-03T13:32:51.779Z,94607.00
2022-08-03T13:35:18.647Z,94605.06
2022-08-03T13:37:47.395Z,94607.56
2022-08-03T13:40:15.949Z,94603.97
2022-08-03T13:42:42.813Z,94598.78
2022-08-03T13:45:11.395Z,94599.75
2022-08-03T13:47:38.269Z,94606.25
2022-08-03T13:50:05.592Z,94607.97
2022-08-03T13:52:36.866Z,94607.34
2022-08-03T13:55:06.638Z,94592.16
2022-08-03T13:58:02.820Z,94594.72
2022-08-03T14:00:28.052Z,94597.06
2022-08-03T14:03:03.833Z,94595.06
2022-08-03T14:05:34.261Z,94598.50
2022-08-03T14:08:04.011Z,94596.31
2022-08-03T14:10:31.309Z,94590.00
2022-08-03T14:13:00.492Z,94587.50
2022-08-03T14:15:28.693Z,94580.72
2022-08-03T14:17:58.603Z,94586.25
2022-08-03T14:20:38.809Z,94575.63
2022-08-03T14:23:14.960Z,94585.63
2022-08-03T14:25:44.541Z,94572.28
2022-08-03T14:28:19.602Z,94578.94
2022-08-03T14:30:46.731Z,94574.72
2022-08-03T14:33:13.485Z,94576.25
2022-08-03T14:35:40.699Z,94571.53
2022-08-03T14:38:07.650Z,94578.72
2022-08-03T14:40:34.539Z,94564.75
2022-08-03T14:43:02.523Z,94570.19
2022-08-03T14:45:29.433Z,94568.94
2022-08-03T14:50:30.492Z,94567.59
2022-08-03T14:50:48.307Z,94552.94
2022-08-03T14:53:15.722Z,94553.38
2022-08-03T14:55:50.511Z,94561.03
2022-08-03T14:58:23.053Z,94553.59
2022-08-03T15:00:51.585Z,94552.84
2022-08-03T15:03:25.811Z,94541.75
2022-08-03T15:05:54.355Z,94534.44
2022-08-03T15:08:22.339Z,94540.34
2022-08-03T15:10:50.646Z,94538.94
2022-08-03T15:13:18.006Z,94545.06
2022-08-03T15:15:45.096Z,94532.78
2022-08-03T15:18:12.105Z,94523.41
2022-08-03T15:20:44.949Z,94537.97
2022-08-03T15:23:14.558Z,94535.19
2022-08-03T15:26:28.903Z,94532.81
2022-08-03T15:28:29.712Z,94524.09
2022-08-03T15:30:56.935Z,94520.81
2022-08-03T15:33:23.845Z,94517.47
2022-08-03T15:35:50.673Z,94518.25
2022-08-03T15:38:17.959Z,94504.56
2022-08-03T15:40:45.476Z,94509.13
2022-08-03T15:43:12.518Z,94503.06
2022-08-03T15:45:41.185Z,94513.38
2022-08-03T15:48:09.114Z,94507.66
2022-08-03T15:50:36.219Z,94511.75
2022-08-03T15:53:03.590Z,94511.69
2022-08-03T15:55:31.317Z,94512.38
2022-08-03T15:59:10.143Z,94513.63
2022-08-03T16:00:45.057Z,94506.53
2022-08-03T16:03:11.854Z,94509.47
2022-08-03T16:05:38.797Z,94504.06
2022-08-03T16:08:09.016Z,94494.72
2022-08-03T16:10:38.725Z,94488.09
2022-08-03T16:13:05.532Z,94489.81
2022-08-03T16:15:32.430Z,94488.88
2022-08-03T16:18:08.692Z,94487.00
2022-08-03T16:20:35.684Z,94493.97
2022-08-03T16:23:11.088Z,94496.69
2022-08-03T16:25:40.132Z,94491.84
2022-08-03T16:28:13.594Z,94495.53
2022-08-03T16:30:43.396Z,94481.75
2022-08-03T16:33:16.589Z,94489.63
2022-08-03T16:35:46.173Z,94493.00
2022-08-03T16:38:18.518Z,94484.56
2022-08-03T16:40:47.777Z,94478.47
2022-08-03T16:43:18.411Z,94483.75
2022-08-03T16:45:47.246Z,94484.00
2022-08-03T16:48:15.904Z,94482.84
2022-08-03T16:50:42.789Z,94479.97
2022-08-03T16:53:16.666Z,94468.56
2022-08-03T16:55:53.625Z,94466.19
2022-08-03T16:58:34.432Z,94474.91
2022-08-03T17:01:21.878Z,94483.00
2022-08-03T17:04:02.283Z,94477.91
2022-08-03T17:06:35.473Z,94477.09
2022-08-03T17:09:10.141Z,94477.41
2022-08-03T17:11:47.331Z,94485.84
2022-08-03T17:14:17.231Z,94480.78
2022-08-03T17:16:52.570Z,94484.63
2022-08-03T17:19:23.695Z,94484.00
2022-08-03T17:22:04.901Z,94476.88
2022-08-03T17:24:41.305Z,94484.41
2022-08-03T17:28:41.834Z,94479.38
2022-08-03T17:30:14.982Z,94485.16
2022-08-03T17:32:57.704Z,94488.00
2022-08-03T17:35:36.619Z,94488.59
2022-08-03T17:38:10.299Z,94478.38
2022-08-03T17:40:47.972Z,94487.19
2022-08-03T17:44:13.453Z,94493.44
2022-08-03T17:46:10.572Z,94488.63
2022-08-03T17:48:41.172Z,94495.72
2022-08-03T17:51:20.477Z,94501.41
2022-08-03T17:54:05.025Z,94501.97
2022-08-03T17:58:01.448Z,94505.06
2022-08-03T18:00:43.892Z,94498.75
2022-08-03T18:03:59.399Z,94511.03
2022-08-03T18:06:36.757Z,94515.28
2022-08-03T18:10:04.391Z,94524.09
2022-08-03T18:11:58.646Z,94517.94
2022-08-03T18:14:43.217Z,94519.19
2022-08-03T18:17:55.621Z,94511.59
2022-08-03T18:20:34.418Z,94521.19
2022-08-03T18:23:25.062Z,94521.72
2022-08-03T18:26:02.060Z,94507.78
2022-08-03T18:28:29.843Z,94508.28
2022-08-03T18:30:57.637Z,94520.28
2022-08-03T18:34:18.951Z,94521.53
2022-08-03T18:36:21.704Z,94510.63
2022-08-03T18:38:59.529Z,94518.88
2022-08-03T18:41:33.167Z,94524.22
2022-08-03T18:44:08.087Z,94529.66
2022-08-03T18:46:49.506Z,94514.13
2022-08-03T18:49:46.859Z,94524.78
2022-08-03T18:52:27.845Z,94526.53
2022-08-03T18:56:01.362Z,94520.94
2022-08-03T18:59:08.759Z,94525.41
2022-08-03T19:01:59.782Z,94512.31
2022-08-03T19:04:32.483Z,94530.97
2022-08-03T19:07:09.177Z,94527.22
2022-08-03T19:09:49.456Z,94523.50
2022-08-03T19:12:39.854Z,94542.97
2022-08-03T19:15:10.391Z,94533.81
2022-08-03T19:17:53.264Z,94527.34
2022-08-03T19:20:28.777Z,94541.38
2022-08-03T19:22:58.689Z,94533.31
2022-08-03T19:25:34.317Z,94533.28
2022-08-03T19:28:06.102Z,94539.25
2022-08-03T19:30:53.361Z,94547.78
2022-08-03T19:33:21.890Z,94541.75
2022-08-03T19:35:55.089Z,94549.84
2022-08-03T19:38:27.391Z,94552.47
2022-08-03T19:41:03.679Z,94558.38
2022-08-03T19:46:31.652Z,94544.59
2022-08-03T19:49:15.029Z,94542.72
2022-08-03T19:52:01.561Z,94550.53
2022-08-03T19:54:54.210Z,94555.63
2022-08-03T19:57:25.087Z,94566.59
2022-08-03T19:59:54.080Z,94551.19
2022-08-03T20:02:26.766Z,94561.09
2022-08-03T20:04:57.183Z,94566.84
2022-08-03T20:07:26.478Z,94572.34
2022-08-03T20:09:56.409Z,94566.97
2022-08-03T20:12:28.094Z,94569.91
2022-08-03T20:14:57.768Z,94567.69
2022-08-03T20:20:12.646Z,94570.22
2022-08-03T20:22:45.547Z,94570.06
2022-08-03T20:28:14.227Z,94570.34
2022-08-03T20:30:44.344Z,94562.19
2022-08-03T20:33:19.011Z,94563.13
2022-08-03T20:35:49.260Z,94564.69
2022-08-03T20:38:18.551Z,94568.94
2022-08-03T20:40:47.462Z,94567.75
2022-08-03T20:43:15.749Z,94567.84
2022-08-03T20:45:59.651Z,94556.06
2022-08-03T20:48:31.140Z,94564.13
2022-08-03T20:50:58.377Z,94568.50
2022-08-03T20:53:56.901Z,94567.09
2022-08-03T20:56:15.155Z,94568.03
2022-08-03T20:58:50.515Z,94563.81
2022-08-03T21:01:18.059Z,94575.22
2022-08-03T21:03:55.799Z,94561.50
2022-08-03T21:06:27.837Z,94558.38
2022-08-03T21:09:05.224Z,94569.84
2022-08-03T21:11:41.932Z,94557.66
2022-08-03T21:13:02.803Z,94557.88
2022-08-03T21:13:06.786Z,94570.34
2022-08-03T21:13:10.448Z,94569.75
2022-08-03T21:14:59.210Z,94557.38
2022-08-03T21:17:39.899Z,94554.72
2022-08-03T21:20:10.897Z,94557.81
2022-08-03T21:22:40.130Z,94564.06
2022-08-03T21:25:09.541Z,94554.13
2022-08-03T21:27:37.356Z,94555.25
2022-08-03T21:30:10.255Z,94560.53
2022-08-03T21:32:40.442Z,94563.66
2022-08-03T21:35:11.169Z,94560.19
2022-08-03T21:37:40.189Z,94572.47
2022-08-03T21:40:10.818Z,94570.16
2022-08-03T21:42:39.547Z,94562.59
2022-08-03T21:45:17.157Z,94569.72
2022-08-03T21:47:45.374Z,94561.81
2022-08-03T21:50:13.876Z,94568.44
2022-08-03T21:52:44.769Z,94565.75
2022-08-03T21:55:18.408Z,94565.53
2022-08-03T21:57:53.261Z,94554.34
2022-08-03T22:00:23.181Z,94565.72
2022-08-03T22:02:57.433Z,94551.00
2022-08-03T22:05:28.958Z,94543.00
2022-08-03T22:08:09.995Z,94552.19
2022-08-03T22:10:37.355Z,94553.78
2022-08-03T22:13:04.233Z,94546.81
2022-08-03T22:15:31.313Z,94552.84
2022-08-03T22:18:03.470Z,94557.75
2022-08-03T22:20:30.786Z,94555.88
2022-08-03T22:23:02.793Z,94554.00
2022-08-03T22:25:34.637Z,94553.09
2022-08-03T22:28:07.958Z,94560.78
2022-08-03T22:30:35.286Z,94564.13
2022-08-03T22:33:05.784Z,94574.44
2022-08-03T22:35:47.837Z,94568.34
2022-08-03T22:38:18.874Z,94560.53
2022-08-03T22:40:48.932Z,94578.88
2022-08-03T22:43:16.714Z,94574.63
2022-08-03T22:46:08.900Z,94580.44
2022-08-03T22:48:36.624Z,94578.81
2022-08-03T22:51:08.985Z,94580.78
2022-08-03T22:53:36.460Z,94587.78
2022-08-03T22:56:03.908Z,94583.56
2022-08-03T22:58:30.749Z,94584.59
2022-08-03T23:01:09.852Z,94581.78
2022-08-03T23:04:00.837Z,94588.59
2022-08-03T23:06:37.146Z,94587.09
2022-08-03T23:09:10.048Z,94585.53
2022-08-03T23:11:45.487Z,94590.81
2022-08-03T23:14:16.615Z,94588.50
2022-08-03T23:16:45.804Z,94590.00
2022-08-03T23:19:16.983Z,94583.41
2022-08-03T23:21:52.913Z,94586.53
2022-08-03T23:24:30.159Z,94589.97
2022-08-03T23:26:57.693Z,94596.25
2022-08-03T23:29:26.771Z,94586.84
2022-08-03T23:31:54.551Z,94589.50
2022-08-03T23:34:41.529Z,94588.50
2022-08-03T23:37:09.742Z,94583.25
2022-08-03T23:39:37.482Z,94577.22
2022-08-03T23:42:05.549Z,94587.13
2022-08-03T23:44:34.858Z,94583.75
2022-08-03T23:47:01.799Z,94579.50
2022-08-03T23:49:28.614Z,94574.06
2022-08-03T23:52:18.382Z,94584.84
2022-08-03T23:55:13.645Z,94578.91
2022-08-03T23:58:04.685Z,94580.41
